Time;durP1;ratioP1;P1;durP2;ratioP2;P2;SDS_P1;SDS_P2;PMS_P1;PMS_P2;Temp;Humidity;BMP_temperature;BMP_pressure;BME280_temperature;BME280_humidity;BME280_pressure;Samples;Min_cycle;Max_cycle;Signal;HPM_P1;HPM_P2
2023/10/13 00:09:42;;;;;;;;;;;12.70;99.90;;;;;;21044702;28;19920;-79
2023/10/13 00:19:46;;;;;;;;;;;12.80;99.90;;;;;;21021406;28;19923;-80
2023/10/13 00:29:47;;;;;;;;;;;12.60;99.90;;;;;;21034405;28;20231;-81
2023/10/13 00:39:55;;;;;;;;;;;12.80;99.90;;;;;;21029914;28;20012;-77
2023/10/13 00:49:56;;;;;;;;;;;12.50;99.90;;;;;;21022997;28;19913;-79
2023/10/13 00:59:57;;;;;;;;;;;12.60;99.90;;;;;;21029530;28;19923;-78
2023/10/13 01:09:58;;;;;;;;;;;12.50;99.90;;;;;;21032972;28;19913;-78
2023/10/13 01:19:59;;;;;;;;;;;12.40;99.90;;;;;;21033188;28;19916;-80
2023/10/13 01:30:05;;;;;;;;;;;12.40;99.90;;;;;;21033074;28;19920;-82
2023/10/13 01:40:06;;;;;;;;;;;12.10;99.90;;;;;;21047974;28;19920;-81
2023/10/13 01:50:14;;;;;;;;;;;12.00;99.90;;;;;;21030905;28;20065;-77
2023/10/13 02:00:20;;;;;;;;;;;11.90;99.90;;;;;;21034502;28;19927;-78
2023/10/13 02:10:23;;;;;;;;;;;11.70;99.90;;;;;;21037880;28;19916;-78
2023/10/13 02:20:30;;;;;;;;;;;11.70;99.90;;;;;;21042280;28;19917;-77
2023/10/13 02:30:32;;;;;;;;;;;11.70;99.90;;;;;;21027527;28;19916;-78
2023/10/13 02:40:35;;;;;;;;;;;12.00;99.90;;;;;;21037866;28;19916;-80
2023/10/13 02:50:38;;;;;;;;;;;11.90;99.90;;;;;;21056025;28;19912;-79
2023/10/13 03:00:40;;;;;;;;;;;11.80;99.90;;;;;;21052209;28;20007;-79
2023/10/13 03:10:47;;;;;;;;;;;12.10;99.90;;;;;;21057052;28;19948;-81
2023/10/13 03:20:56;;;;;;;;;;;12.50;99.90;;;;;;21061321;28;19916;-78
2023/10/13 03:31:01;;;;;;;;;;;12.50;99.90;;;;;;21039026;28;19916;-80
2023/10/13 03:41:12;;;;;;;;;;;12.30;99.90;;;;;;21045019;28;20059;-79
2023/10/13 03:51:15;;;;;;;;;;;12.00;99.90;;;;;;21028248;28;19916;-80
2023/10/13 04:01:16;;;;;;;;;;;11.60;99.90;;;;;;21018093;28;19962;-78
2023/10/13 04:21:39;;;;;;;;;;;11.80;99.90;;;;;;21032107;28;19971;-77
2023/10/13 04:31:55;;;;;;;;;;;12.10;99.90;;;;;;21051261;28;19917;-79
2023/10/13 05:02:42;;;;;;;;;;;12.00;99.90;;;;;;20997279;28;19920;-79
2023/10/13 06:35:18;;;;;;;;;;;12.10;99.90;;;;;;21029539;28;19997;-76
2023/10/13 06:45:21;;;;;;;;;;;12.40;99.90;;;;;;21065760;28;19986;-77
2023/10/13 06:55:28;;;;;;;;;;;13.00;99.90;;;;;;21062501;28;20267;-77
2023/10/13 07:05:32;;;;;;;;;;;13.90;99.90;;;;;;21050811;28;20199;-80
2023/10/13 07:15:42;;;;;;;;;;;14.60;99.90;;;;;;21047850;28;20007;-77
2023/10/13 07:25:44;;;;;;;;;;;15.60;99.90;;;;;;21058905;28;19916;-79
2023/10/13 07:35:50;;;;;;;;;;;16.30;99.90;;;;;;21041923;28;19966;-79
2023/10/13 07:45:58;;;;;;;;;;;16.30;99.90;;;;;;21039702;28;19970;-79
2023/10/13 07:56:03;;;;;;;;;;;16.90;99.90;;;;;;21026616;28;19974;-79
2023/10/13 08:06:18;;;;;;;;;;;16.90;99.90;;;;;;21018362;28;19989;-79
2023/10/13 08:16:22;;;;;;;;;;;17.50;99.90;;;;;;21050307;28;19947;-78
2023/10/13 08:36:38;;;;;;;;;;;19.20;99.90;;;;;;20986264;28;19916;-78
2023/10/13 08:47:03;;;;;;;;;;;20.00;99.90;;;;;;21005266;28;20400;-80
2023/10/13 08:57:19;;;;;;;;;;;20.40;99.90;;;;;;20985246;28;19920;-78
2023/10/13 09:07:25;;;;;;;;;;;19.90;99.90;;;;;;21017871;28;21008;-78
2023/10/13 09:17:35;;;;;;;;;;;21.50;99.90;;;;;;21019689;28;19969;-78
2023/10/13 09:27:37;;;;;;;;;;;22.00;99.90;;;;;;21039450;28;20275;-78
2023/10/13 09:37:38;;;;;;;;;;;22.50;99.90;;;;;;21041311;28;19962;-79
2023/10/13 09:47:40;;;;;;;;;;;22.30;99.90;;;;;;21056672;28;19912;-79
2023/10/13 09:57:44;;;;;;;;;;;23.10;99.90;;;;;;21064417;28;19916;-78
2023/10/13 10:07:53;;;;;;;;;;;24.10;99.90;;;;;;21083654;28;19912;-79
2023/10/13 10:17:54;;;;;;;;;;;24.50;99.90;;;;;;21092354;28;19931;-79
2023/10/13 10:27:56;;;;;;;;;;;24.20;99.90;;;;;;21064940;28;19924;-80
2023/10/13 10:38:11;;;;;;;;;;;24.90;99.90;;;;;;21061438;28;19928;-79
2023/10/13 10:48:18;;;;;;;;;;;25.60;99.90;;;;;;21069648;28;19912;-79
2023/10/13 10:58:31;;;;;;;;;;;26.10;99.90;;;;;;21057190;28;19940;-79
2023/10/13 11:08:31;;;;;;;;;;;26.60;97.60;;;;;;21096898;28;19919;-79
2023/10/13 11:18:36;;;;;;;;;;;26.60;97.10;;;;;;21118124;28;19916;-79
2023/10/13 11:28:38;;;;;;;;;;;26.60;97.20;;;;;;21111381;28;19928;-79
2023/10/13 11:48:55;;;;;;;;;;;27.20;96.40;;;;;;21099424;28;19919;-79
2023/10/13 11:59:01;;;;;;;;;;;27.30;96.20;;;;;;21076815;28;19959;-79
2023/10/13 12:10:03;;;;;;;;;;;27.90;94.80;;;;;;21037372;28;19991;-78
2023/10/13 12:19:34;;;;;;;;;;;28.20;93.90;;;;;;21024338;28;19916;-79
2023/10/13 12:29:35;;;;;;;;;;;28.70;93.10;;;;;;21020634;28;19917;-79
2023/10/13 12:49:58;;;;;;;;;;;29.00;92.00;;;;;;21020358;28;19974;-78
2023/10/13 12:59:59;;;;;;;;;;;29.30;91.50;;;;;;21035827;28;19922;-79
2023/10/13 13:09:59;;;;;;;;;;;30.80;87.50;;;;;;21061634;28;19920;-79
2023/10/13 13:20:00;;;;;;;;;;;31.10;86.20;;;;;;21070670;28;19935;-78
2023/10/13 13:30:01;;;;;;;;;;;30.50;83.30;;;;;;21078831;28;19923;-79
2023/10/13 13:40:16;;;;;;;;;;;31.10;82.20;;;;;;21085732;28;20452;-78
2023/10/13 13:50:23;;;;;;;;;;;31.10;80.00;;;;;;21082840;28;19912;-78
2023/10/13 14:00:37;;;;;;;;;;;30.50;80.00;;;;;;21085271;28;19916;-78
2023/10/13 14:12:25;;;;;;;;;;;31.10;78.40;;;;;;21075003;28;19917;-80
2023/10/13 14:21:03;;;;;;;;;;;30.90;74.90;;;;;;21044878;28;19955;-79
2023/10/13 14:31:09;;;;;;;;;;;29.30;65.30;;;;;;21060574;28;19916;-81
2023/10/13 14:41:10;;;;;;;;;;;28.80;59.80;;;;;;21075323;28;19927;-79
2023/10/13 14:51:12;;;;;;;;;;;28.90;63.50;;;;;;21057946;28;19912;-79
2023/10/13 15:01:15;;;;;;;;;;;28.60;59.30;;;;;;21054851;28;19916;-78
2023/10/13 15:11:18;;;;;;;;;;;28.70;58.50;;;;;;21055784;28;20339;-80
2023/10/13 15:21:19;;;;;;;;;;;28.60;58.40;;;;;;21072963;28;20306;-78
2023/10/13 15:31:25;;;;;;;;;;;28.70;56.40;;;;;;21065556;28;19923;-79
2023/10/13 15:41:27;;;;;;;;;;;28.00;54.40;;;;;;21076739;28;19923;-77
2023/10/13 15:51:27;;;;;;;;;;;27.80;57.00;;;;;;21052425;28;19912;-78
2023/10/13 16:01:28;;;;;;;;;;;26.90;59.20;;;;;;21053404;28;19916;-79
2023/10/13 16:11:29;;;;;;;;;;;26.10;59.30;;;;;;21072708;28;20313;-79
2023/10/13 16:21:29;;;;;;;;;;;25.50;61.00;;;;;;21068734;28;20302;-80
2023/10/13 16:31:30;;;;;;;;;;;25.10;63.20;;;;;;21066751;28;19920;-81
2023/10/13 16:41:31;;;;;;;;;;;24.20;66.70;;;;;;21078944;28;19917;-81
2023/10/13 16:51:31;;;;;;;;;;;23.70;67.00;;;;;;21091513;28;19941;-80
2023/10/13 17:01:32;;;;;;;;;;;23.50;66.90;;;;;;21088351;28;20021;-80
2023/10/13 17:11:33;;;;;;;;;;;23.10;68.40;;;;;;21040733;28;19919;-78
2023/10/13 17:21:33;;;;;;;;;;;23.30;67.90;;;;;;21028275;28;20367;-80
2023/10/13 17:31:34;;;;;;;;;;;23.20;68.60;;;;;;21000863;28;19916;-79
2023/10/13 17:41:35;;;;;;;;;;;22.60;71.20;;;;;;21049875;28;19920;-79
2023/10/13 17:51:35;;;;;;;;;;;21.40;75.00;;;;;;21057726;28;19913;-81
2023/10/13 18:01:36;;;;;;;;;;;20.30;78.00;;;;;;21011542;28;19916;-78
2023/10/13 18:11:37;;;;;;;;;;;19.90;79.60;;;;;;21015216;28;19944;-78
2023/10/13 18:21:38;;;;;;;;;;;19.40;82.10;;;;;;21015461;28;19962;-78
2023/10/13 18:31:38;;;;;;;;;;;19.00;84.40;;;;;;20995388;28;19994;-79
2023/10/13 18:41:39;;;;;;;;;;;18.50;88.10;;;;;;20975744;28;20299;-78
2023/10/13 18:51:42;;;;;;;;;;;19.20;89.30;;;;;;21023446;28;19974;-78
2023/10/13 19:01:45;;;;;;;;;;;18.40;91.50;;;;;;21024510;28;20268;-78
2023/10/13 19:11:46;;;;;;;;;;;18.00;93.40;;;;;;21001771;28;19918;-77
2023/10/13 19:21:47;;;;;;;;;;;17.50;95.50;;;;;;20983897;28;20387;-79
2023/10/13 19:31:48;;;;;;;;;;;17.50;96.70;;;;;;20984468;28;20051;-79
2023/10/13 19:41:48;;;;;;;;;;;17.60;98.40;;;;;;20989231;28;19923;-79
2023/10/13 19:51:52;;;;;;;;;;;16.70;99.90;;;;;;21012687;28;20453;-77
2023/10/13 20:01:53;;;;;;;;;;;16.80;99.90;;;;;;21001846;28;20217;-78
2023/10/13 20:11:57;;;;;;;;;;;16.40;99.90;;;;;;21040215;28;19983;-78
2023/10/13 20:22:02;;;;;;;;;;;16.10;99.90;;;;;;21021301;28;19916;-82
2023/10/13 20:32:03;;;;;;;;;;;15.80;99.90;;;;;;20995330;28;19923;-80
2023/10/13 20:42:07;;;;;;;;;;;15.70;99.90;;;;;;21003658;28;19920;-79
2023/10/13 20:52:08;;;;;;;;;;;15.20;99.90;;;;;;21003779;28;19916;-79
2023/10/13 21:02:09;;;;;;;;;;;15.30;99.90;;;;;;21029878;28;19916;-79
2023/10/13 21:12:10;;;;;;;;;;;15.50;99.90;;;;;;20975981;28;19912;-78
2023/10/13 21:22:10;;;;;;;;;;;15.80;99.90;;;;;;20980685;28;20185;-78
2023/10/13 21:32:13;;;;;;;;;;;15.70;99.90;;;;;;20963076;28;19920;-79
2023/10/13 21:42:14;;;;;;;;;;;15.50;99.90;;;;;;20963077;28;19928;-80
2023/10/13 21:52:16;;;;;;;;;;;15.30;99.90;;;;;;20972553;28;20401;-80
2023/10/13 22:02:19;;;;;;;;;;;15.00;99.90;;;;;;20959172;28;19924;-79
2023/10/13 22:12:20;;;;;;;;;;;15.30;99.90;;;;;;20968404;28;20264;-80
2023/10/13 22:22:22;;;;;;;;;;;15.80;99.90;;;;;;20944582;28;19920;-79
2023/10/13 22:32:26;;;;;;;;;;;16.10;99.90;;;;;;20929769;28;20303;-80
2023/10/13 22:42:26;;;;;;;;;;;16.40;99.90;;;;;;20932564;28;19924;-79
2023/10/13 22:52:27;;;;;;;;;;;16.60;99.90;;;;;;20949068;28;20050;-80
2023/10/13 23:02:28;;;;;;;;;;;16.60;99.90;;;;;;20962464;28;20359;-79
2023/10/13 23:12:29;;;;;;;;;;;16.10;99.90;;;;;;20986276;28;19917;-79
2023/10/13 23:22:30;;;;;;;;;;;15.60;99.90;;;;;;20982154;28;19963;-78
2023/10/13 23:32:32;;;;;;;;;;;15.80;99.90;;;;;;20974037;28;19920;-78
2023/10/13 23:42:54;;;;;;;;;;;16.10;99.90;;;;;;20978768;28;19962;-79
2023/10/13 23:52:56;;;;;;;;;;;16.40;99.90;;;;;;20997696;28;19962;-79
